Alice International Airport
KALI : now visible

Airfield :











YOU CAN JOIN US ON...

 
LOGIN :

Register | Disclaimer

   EN    FR    IT 

 









Legend :    VFR   Marginal VFR   IFR   Intensive IFR   Very Intensive IFR
Visi :
Ceiling :
>= 8 km
>= 3000ft
5 to 8 km
1000 to 3000 ft
1500m to 5 km
500 to 1000 ft
800 to 1500m
200 to 500 ft
< 800m
< 200 ft
Symbols :   Thunderstorms  Fog  Heavy snow  Heavy precipitations  Wind > 20 kt






- Airport Elevation : 178 ft


KALI - Alice International

CURRENT METAR :
  • 100153Z AUTO 13014KT 10SM CLR 29/24 A2986 RMK AO2 SLP108 T02940239

EXPIRED METARs :
  • 100053Z AUTO 13014G23KT 10SM CLR 31/24 A2983 RMK AO2 SLP099 T03060239
  • 092353Z AUTO 14016G23KT 10SM CLR 33/24 A2982 RMK AO2 RAB15E41 SLP096 P0000 60000 T03280244 10367 20328 55002

TAF KALI
Valid from the 10 at 00:00 until the 11 at 00:00 UTC


092333Z 1000/1024 14018G25KT P6SM FEW050
FM100200 14012KT P6SM SCT020
FM100600 16008KT P6SM BKN012
FM101500 17012G18KT P6SM SCT025 BKN035
FM102000 14017G26KT P6SM SCT040
KZHU FIR / North America



MET'MAP, your aeronautical weather chart ! - Copyright ORBIFLY December 2007 - Disclaimer

ORBIFLY MET'MAP TEAM :

Programming & Development : Alexandra Zaïnal
Concept & original design : Baudouin d'Aumeries
Assistance for programming : Marc-Olivier Méhu
Technical & hardware support : Manuel Goepfert

Contact : metmap@orbifly.com




SOURCES & CREDITS :

   NOAA       Earth
Advisory